createdAt,value
2022-09-12T00:01:27.183Z,101313.00
2022-09-12T00:03:59.679Z,101313.09
2022-09-12T00:06:37.574Z,101305.63
2022-09-12T00:09:13.225Z,101312.34
2022-09-12T00:11:45.879Z,101304.69
2022-09-12T00:14:18.377Z,101304.19
2022-09-12T00:16:46.654Z,101307.53
2022-09-12T00:19:14.878Z,101298.81
2022-09-12T00:21:43.100Z,101303.28
2022-09-12T00:24:11.619Z,101300.72
2022-09-12T00:26:40.096Z,101299.38
2022-09-12T00:29:08.244Z,101295.38
2022-09-12T00:31:36.884Z,101297.56
2022-09-12T00:34:05.099Z,101291.84
2022-09-12T00:36:33.247Z,101288.97
2022-09-12T00:39:01.614Z,101294.50
2022-09-12T00:41:39.354Z,101300.25
2022-09-12T00:44:10.318Z,101298.09
2022-09-12T00:46:52.550Z,101294.41
2022-09-12T00:49:45.635Z,101288.59
2022-09-12T00:52:20.831Z,101300.50
2022-09-12T00:55:17.354Z,101306.09
2022-09-12T00:58:05.021Z,101294.44
2022-09-12T01:00:33.763Z,101298.91
2022-09-12T01:03:11.422Z,101299.16
2022-09-12T01:05:46.781Z,101294.88
2022-09-12T01:08:15.105Z,101297.78
2022-09-12T01:10:44.063Z,101302.00
2022-09-12T01:13:13.134Z,101295.38
2022-09-12T01:15:41.671Z,101299.13
2022-09-12T01:18:21.700Z,101288.72
2022-09-12T01:20:58.049Z,101287.34
2022-09-12T01:24:25.031Z,101294.78
2022-09-12T01:27:40.723Z,101291.69
2022-09-12T01:30:34.004Z,101297.03
2022-09-12T01:33:47.743Z,101289.56
2022-09-12T01:36:58.576Z,101288.53
2022-09-12T01:40:00.151Z,101295.06
2022-09-12T01:43:16.078Z,101289.91
2022-09-12T01:45:47.659Z,101289.91
2022-09-12T01:48:36.251Z,101290.69
2022-09-12T01:51:36.182Z,101290.22
2022-09-12T01:54:17.418Z,101288.03
2022-09-12T01:56:52.371Z,101290.44
2022-09-12T01:59:33.407Z,101293.22
2022-09-12T02:02:18.184Z,101285.06
2022-09-12T02:04:57.948Z,101284.00
2022-09-12T02:07:35.881Z,101285.53
2022-09-12T02:10:32.538Z,101290.78
2022-09-12T02:13:19.097Z,101287.22
2022-09-12T02:15:56.769Z,101286.19
2022-09-12T02:18:30.198Z,101288.34
2022-09-12T02:21:01.573Z,101293.72
2022-09-12T02:23:33.090Z,101288.50
2022-09-12T02:26:11.070Z,101291.47
2022-09-12T02:28:44.420Z,101291.03
2022-09-12T02:31:34.841Z,101295.81
2022-09-12T02:34:18.397Z,101290.66
2022-09-12T02:36:54.677Z,101287.47
2022-09-12T02:39:22.852Z,101288.28
2022-09-12T02:41:55.899Z,101283.59
2022-09-12T02:44:27.278Z,101283.59
2022-09-12T02:47:05.281Z,101288.19
2022-09-12T02:49:33.708Z,101291.53
2022-09-12T02:52:02.900Z,101294.56
2022-09-12T02:54:31.586Z,101296.03
2022-09-12T02:56:59.706Z,101293.88
2022-09-12T02:59:28.627Z,101295.00
2022-09-12T03:02:06.468Z,101304.38
2022-09-12T03:05:33.712Z,101302.50
2022-09-12T03:09:00.412Z,101297.88
2022-09-12T03:12:11.833Z,101290.84
2022-09-12T03:15:08.182Z,101296.13
2022-09-12T03:18:04.462Z,101295.91
2022-09-12T03:20:45.944Z,101291.34
2022-09-12T03:24:00.383Z,101289.06
2022-09-12T03:26:56.644Z,101285.53
2022-09-12T03:29:28.013Z,101287.47
2022-09-12T03:31:58.717Z,101286.59
2022-09-12T03:34:28.552Z,101290.13
2022-09-12T03:36:57.010Z,101287.16
2022-09-12T03:39:27.028Z,101284.31
2022-09-12T03:41:56.670Z,101289.13
2022-09-12T03:44:25.534Z,101286.97
2022-09-12T03:46:53.678Z,101286.28
2022-09-12T03:49:21.843Z,101292.44
2022-09-12T03:51:49.982Z,101288.00
2022-09-12T03:54:18.128Z,101294.50
2022-09-12T03:56:46.310Z,101297.56
2022-09-12T03:59:14.455Z,101289.31
2022-09-12T04:01:42.603Z,101290.94
2022-09-12T04:04:10.730Z,101292.75
2022-09-12T04:06:38.965Z,101296.88
2022-09-12T04:09:07.241Z,101289.19
2022-09-12T04:11:35.936Z,101302.06
2022-09-12T04:14:04.261Z,101307.09
2022-09-12T04:16:32.978Z,101302.50
2022-09-12T04:19:01.268Z,101306.78
2022-09-12T04:21:29.598Z,101307.00
2022-09-12T04:23:57.719Z,101306.44
2022-09-12T04:26:25.918Z,101300.84
2022-09-12T04:28:55.109Z,101300.63
2022-09-12T04:31:24.170Z,101302.13
2022-09-12T04:34:01.098Z,101303.41
2022-09-12T04:36:30.287Z,101296.78
2022-09-12T04:39:00.105Z,101292.88
2022-09-12T04:41:32.843Z,101294.63
2022-09-12T04:44:05.636Z,101291.91
2022-09-12T04:46:38.664Z,101293.88
2022-09-12T04:49:07.170Z,101297.03
2022-09-12T04:51:38.572Z,101297.84
2022-09-12T04:54:12.033Z,101299.03
2022-09-12T04:56:43.610Z,101295.78
2022-09-12T04:59:15.452Z,101295.91
2022-09-12T05:01:43.874Z,101306.88
2022-09-12T05:04:13.559Z,101301.38
2022-09-12T05:06:42.423Z,101293.41
2022-09-12T05:09:14.281Z,101297.78
2022-09-12T05:12:05.036Z,101295.16
2022-09-12T05:14:34.572Z,101302.50
2022-09-12T05:17:05.999Z,101301.31
2022-09-12T05:19:34.201Z,101300.13
2022-09-12T05:22:02.582Z,101310.63
2022-09-12T05:24:30.721Z,101307.06
2022-09-12T05:26:59.164Z,101308.66
2022-09-12T05:29:27.282Z,101310.59
2022-09-12T05:31:55.630Z,101310.47
2022-09-12T05:34:23.800Z,101316.09
2022-09-12T05:36:51.960Z,101313.75
2022-09-12T05:39:20.416Z,101319.03
2022-09-12T05:41:48.664Z,101312.63
2022-09-12T05:44:17.113Z,101323.09
2022-09-12T05:46:50.409Z,101319.41
2022-09-12T05:49:18.859Z,101318.97
2022-09-12T05:51:47.194Z,101330.16
2022-09-12T05:54:20.457Z,101334.19
2022-09-12T05:56:49.198Z,101333.81
2022-09-12T05:59:21.389Z,101324.56
2022-09-12T06:01:49.804Z,101336.94
2022-09-12T06:04:18.175Z,101339.56
2022-09-12T06:06:46.773Z,101341.63
2022-09-12T06:09:16.836Z,101338.44
2022-09-12T06:11:46.982Z,101334.81
2022-09-12T06:14:17.610Z,101334.81
2022-09-12T06:16:47.294Z,101340.16
2022-09-12T06:19:21.769Z,101340.84
2022-09-12T06:21:51.634Z,101338.94
2022-09-12T06:24:21.389Z,101346.59
2022-09-12T06:26:52.656Z,101350.53
2022-09-12T06:29:21.097Z,101356.34
2022-09-12T06:31:49.236Z,101353.88
2022-09-12T06:34:17.456Z,101354.34
2022-09-12T06:36:48.784Z,101347.91
2022-09-12T06:39:20.657Z,101349.72
2022-09-12T06:41:51.699Z,101353.66
2022-09-12T06:44:22.871Z,101358.16
2022-09-12T06:46:51.496Z,101356.94
2022-09-12T06:49:19.619Z,101354.38
2022-09-12T06:51:47.798Z,101354.56
2022-09-12T06:54:17.313Z,101361.09
2022-09-12T06:56:45.805Z,101352.41
2022-09-12T06:59:14.056Z,101350.28
2022-09-12T07:01:42.366Z,101349.13
2022-09-12T07:04:10.924Z,101348.91
2022-09-12T07:06:42.144Z,101354.03
2022-09-12T07:09:14.194Z,101346.59
2022-09-12T07:11:43.426Z,101344.88
2022-09-12T07:14:14.493Z,101337.94
2022-09-12T07:16:43.221Z,101342.88
2022-09-12T07:19:12.137Z,101346.41
2022-09-12T07:21:41.993Z,101344.00
2022-09-12T07:24:11.098Z,101343.56
2022-09-12T07:26:42.249Z,101343.78
2022-09-12T07:29:36.005Z,101341.59
2022-09-12T07:32:05.912Z,101345.47
2022-09-12T07:34:35.261Z,101346.41
2022-09-12T07:37:03.574Z,101341.78
2022-09-12T07:39:32.444Z,101344.59
2022-09-12T07:42:00.603Z,101342.16
2022-09-12T07:44:29.449Z,101340.06
2022-09-12T07:46:57.644Z,101348.50
2022-09-12T07:49:25.933Z,101345.44
2022-09-12T07:51:54.067Z,101349.31
2022-09-12T07:54:22.737Z,101348.84
2022-09-12T07:56:50.859Z,101353.66
2022-09-12T07:59:41.560Z,101350.47
2022-09-12T08:02:16.801Z,101350.38
2022-09-12T08:04:47.504Z,101355.25
2022-09-12T08:07:18.120Z,101354.59
2022-09-12T08:09:46.550Z,101352.56
2022-09-12T08:12:16.637Z,101356.31
2022-09-12T08:14:44.758Z,101355.94
2022-09-12T08:17:14.349Z,101355.97
2022-09-12T08:19:43.029Z,101352.78
2022-09-12T08:22:12.006Z,101351.47
2022-09-12T08:24:40.162Z,101358.31
2022-09-12T08:27:08.583Z,101349.53
2022-09-12T08:29:36.699Z,101349.16
2022-09-12T08:32:04.953Z,101354.22
2022-09-12T08:34:33.146Z,101357.66
2022-09-12T08:37:01.330Z,101348.94
2022-09-12T08:39:29.493Z,101357.88
2022-09-12T08:42:03.310Z,101357.25
2022-09-12T08:44:41.962Z,101356.19
2022-09-12T08:47:36.277Z,101347.88
2022-09-12T08:50:10.438Z,101362.59
2022-09-12T08:52:58.539Z,101356.41
2022-09-12T08:55:33.045Z,101361.34
2022-09-12T08:58:14.716Z,101358.84
2022-09-12T09:01:28.826Z,101358.94
2022-09-12T09:04:14.278Z,101358.66
2022-09-12T09:07:07.267Z,101347.94
2022-09-12T09:10:08.038Z,101347.75
2022-09-12T09:13:36.658Z,101351.47
2022-09-12T09:16:28.066Z,101351.97
2022-09-12T09:19:12.685Z,101350.13
2022-09-12T09:21:52.544Z,101348.72
2022-09-12T09:24:42.803Z,101345.31
2022-09-12T09:27:40.394Z,101342.47
2022-09-12T09:30:19.995Z,101341.19
2022-09-12T09:32:56.190Z,101334.22
2022-09-12T09:35:44.921Z,101334.81
2022-09-12T09:38:22.997Z,101332.63
2022-09-12T09:41:07.167Z,101332.31
2022-09-12T09:43:38.766Z,101343.38
2022-09-12T09:46:07.715Z,101337.97
2022-09-12T09:48:46.022Z,101332.56
2022-09-12T09:51:27.063Z,101343.03
2022-09-12T09:54:21.218Z,101342.56
2022-09-12T09:56:49.911Z,101337.66
2022-09-12T09:59:36.351Z,101334.91
2022-09-12T10:02:24.411Z,101335.22
2022-09-12T10:04:58.890Z,101332.34
2022-09-12T10:07:27.414Z,101327.34
2022-09-12T10:10:16.220Z,101321.69
2022-09-12T10:12:45.269Z,101319.06
2022-09-12T10:15:29.535Z,101321.88
2022-09-12T10:17:58.925Z,101319.81
2022-09-12T10:20:44.655Z,101319.88
2022-09-12T10:23:29.517Z,101317.59
2022-09-12T10:26:01.636Z,101317.94
2022-09-12T10:28:40.091Z,101319.28
2022-09-12T10:31:29.198Z,101318.72
2022-09-12T10:34:01.363Z,101322.16
2022-09-12T10:36:40.861Z,101315.38
2022-09-12T10:39:19.654Z,101319.44
2022-09-12T10:41:47.816Z,101311.72
2022-09-12T10:44:26.183Z,101303.13
2022-09-12T10:46:55.815Z,101296.41
2022-09-12T10:49:31.825Z,101302.06
2022-09-12T10:52:23.330Z,101298.59
2022-09-12T10:54:52.694Z,101300.44
2022-09-12T10:57:40.631Z,101295.91
2022-09-12T11:00:20.118Z,101291.78
2022-09-12T11:03:19.383Z,101291.22
2022-09-12T11:06:01.543Z,101294.41
2022-09-12T11:08:55.248Z,101287.66
2022-09-12T11:11:45.019Z,101292.81
2022-09-12T11:15:03.365Z,101293.88
2022-09-12T11:17:52.070Z,101291.56
2022-09-12T11:20:53.829Z,101290.59
2022-09-12T11:24:02.336Z,101293.81
2022-09-12T11:27:04.090Z,101293.38
2022-09-12T11:29:59.558Z,101300.50
2022-09-12T11:32:39.326Z,101289.69
2022-09-12T11:38:32.476Z,101287.75
2022-09-12T11:41:23.982Z,101296.78
2022-09-12T11:44:22.391Z,101290.84
2022-09-12T11:46:52.082Z,101286.00
2022-09-12T11:49:36.202Z,101278.84
2022-09-12T11:52:23.876Z,101284.78
2022-09-12T11:55:05.731Z,101280.63
2022-09-12T11:57:54.310Z,101279.00
2022-09-12T12:00:32.219Z,101276.44
2022-09-12T12:03:30.710Z,101270.94
2022-09-12T12:06:10.742Z,101259.31
2022-09-12T12:08:42.914Z,101257.63
2022-09-12T12:11:38.173Z,101259.66
2022-09-12T12:14:18.034Z,101254.69
2022-09-12T12:16:49.472Z,101250.19
2022-09-12T12:19:17.471Z,101243.88
2022-09-12T12:21:49.223Z,101245.38
2022-09-12T12:24:26.051Z,101249.91
2022-09-12T12:27:02.038Z,101244.91
2022-09-12T12:29:44.642Z,101240.78
2022-09-12T12:32:22.254Z,101240.81
2022-09-12T12:34:50.625Z,101227.16
2022-09-12T12:37:29.883Z,101238.94
2022-09-12T12:40:07.486Z,101235.72
2022-09-12T12:42:35.596Z,101238.94
2022-09-12T12:45:29.204Z,101247.63
2022-09-12T12:48:08.796Z,101237.56
2022-09-12T12:50:37.273Z,101240.22
2022-09-12T12:53:25.104Z,101240.41
2022-09-12T12:55:57.684Z,101244.78
2022-09-12T12:58:40.694Z,101247.06
2022-09-12T13:01:22.993Z,101242.50
2022-09-12T13:03:54.172Z,101237.22
2022-09-12T13:06:39.753Z,101236.28
2022-09-12T13:09:32.404Z,101241.97
2022-09-12T13:12:08.683Z,101236.38
2022-09-12T13:14:51.901Z,101235.19
2022-09-12T13:17:30.717Z,101235.16
2022-09-12T13:20:28.396Z,101224.69
2022-09-12T13:22:58.414Z,101233.09
2022-09-12T13:25:37.365Z,101219.28
2022-09-12T13:28:29.234Z,101226.00
2022-09-12T13:31:24.926Z,101220.47
2022-09-12T13:34:00.011Z,101214.41
2022-09-12T13:36:57.406Z,101216.94
2022-09-12T13:39:46.371Z,101212.19
2022-09-12T13:42:45.100Z,101210.97
2022-09-12T13:45:28.992Z,101205.81
2022-09-12T13:48:02.502Z,101203.97
2022-09-12T13:50:42.951Z,101196.50
2022-09-12T13:53:23.437Z,101194.94
2022-09-12T13:56:00.338Z,101199.44
2022-09-12T13:58:35.129Z,101193.91
2022-09-12T14:01:15.261Z,101196.25
2022-09-12T14:04:37.338Z,101192.03
2022-09-12T14:07:20.878Z,101190.16
2022-09-12T14:09:59.181Z,101195.50
2022-09-12T14:12:41.429Z,101197.50
2022-09-12T14:15:25.248Z,101190.75
2022-09-12T14:18:01.354Z,101185.50
2022-09-12T14:20:36.289Z,101189.97
2022-09-12T14:23:27.580Z,101185.13
2022-09-12T14:25:58.711Z,101186.34
2022-09-12T14:28:29.120Z,101188.31
2022-09-12T14:31:07.607Z,101188.69
2022-09-12T14:33:52.186Z,101185.91
2022-09-12T14:36:51.313Z,101177.97
2022-09-12T14:39:40.131Z,101181.47
2022-09-12T14:42:27.114Z,101175.41
2022-09-12T14:45:06.441Z,101181.19
2022-09-12T14:47:42.849Z,101176.47
2022-09-12T14:50:26.223Z,101175.22
2022-09-12T14:53:19.827Z,101173.22
2022-09-12T14:56:14.168Z,101169.28
2022-09-12T14:58:42.839Z,101172.88
2022-09-12T15:01:10.867Z,101165.66
2022-09-12T15:03:44.902Z,101170.91
2022-09-12T15:06:32.664Z,101168.50
2022-09-12T15:09:08.407Z,101160.03
2022-09-12T15:11:36.681Z,101167.28
2022-09-12T15:14:14.974Z,101170.38
2022-09-12T15:16:43.100Z,101168.13
2022-09-12T15:19:11.379Z,101158.22
2022-09-12T15:21:39.538Z,101171.72
2022-09-12T15:24:09.504Z,101164.97
2022-09-12T15:26:37.626Z,101163.78
2022-09-12T15:29:05.853Z,101162.19
2022-09-12T15:31:34.043Z,101164.97
2022-09-12T15:34:03.192Z,101158.22
2022-09-12T15:36:31.485Z,101154.19
2022-09-12T15:38:59.690Z,101147.03
2022-09-12T15:41:38.188Z,101153.84
2022-09-12T15:44:12.288Z,101158.59
2022-09-12T15:46:40.803Z,101158.19
2022-09-12T15:49:08.976Z,101154.63
2022-09-12T15:51:37.209Z,101154.25
2022-09-12T15:54:05.411Z,101157.03
2022-09-12T15:56:33.531Z,101151.44
2022-09-12T15:59:01.837Z,101143.94
2022-09-12T16:01:30.052Z,101150.69
2022-09-12T16:03:58.614Z,101145.91
2022-09-12T16:06:27.996Z,101145.09
2022-09-12T16:08:56.133Z,101136.38
2022-09-12T16:11:27.042Z,101135.94
2022-09-12T16:13:56.857Z,101126.75
2022-09-12T16:16:25.129Z,101135.84
2022-09-12T16:18:53.306Z,101127.63
2022-09-12T16:21:21.513Z,101127.59
2022-09-12T16:23:50.826Z,101123.59
2022-09-12T16:26:19.056Z,101129.53
2022-09-12T16:28:47.809Z,101115.63
2022-09-12T16:31:16.077Z,101115.63
2022-09-12T16:33:44.397Z,101120.72
2022-09-12T16:36:15.243Z,101112.41
2022-09-12T16:38:52.255Z,101116.41
2022-09-12T16:41:27.121Z,101121.56
2022-09-12T16:43:55.558Z,101110.06
2022-09-12T16:46:30.628Z,101113.28
2022-09-12T16:48:59.481Z,101104.16
2022-09-12T16:51:32.662Z,101109.00
2022-09-12T16:54:00.936Z,101103.84
2022-09-12T16:56:29.564Z,101105.03
2022-09-12T16:58:57.721Z,101099.47
2022-09-12T17:01:26.785Z,101100.25
2022-09-12T17:03:58.304Z,101097.09
2022-09-12T17:06:28.505Z,101093.47
2022-09-12T17:09:00.998Z,101086.22
2022-09-12T17:11:39.333Z,101089.41
2022-09-12T17:14:08.933Z,101090.63
2022-09-12T17:16:41.849Z,101085.09
2022-09-12T17:19:17.265Z,101095.34
2022-09-12T17:21:50.179Z,101083.00
2022-09-12T17:24:18.927Z,101079.41
2022-09-12T17:26:47.428Z,101080.56
2022-09-12T17:29:16.990Z,101079.34
2022-09-12T17:31:46.643Z,101077.28
2022-09-12T17:34:16.404Z,101080.09
2022-09-12T17:36:45.431Z,101079.00
2022-09-12T17:39:15.096Z,101083.34
2022-09-12T17:41:46.165Z,101085.63
2022-09-12T17:44:15.945Z,101080.88
2022-09-12T17:46:44.276Z,101088.03
2022-09-12T17:49:16.901Z,101079.13
2022-09-12T17:51:45.732Z,101079.25
2022-09-12T17:54:17.372Z,101084.97
2022-09-12T17:56:49.027Z,101089.72
2022-09-12T17:59:24.017Z,101079.94
2022-09-12T18:02:10.739Z,101086.72
2022-09-12T18:04:40.988Z,101093.53
2022-09-12T18:07:09.268Z,101094.19
2022-09-12T18:09:37.495Z,101098.25
2022-09-12T18:12:05.997Z,101104.31
2022-09-12T18:14:34.983Z,101103.38
2022-09-12T18:17:03.678Z,101097.56
2022-09-12T18:19:32.020Z,101093.66
2022-09-12T18:22:00.177Z,101103.34
2022-09-12T18:24:29.027Z,101094.94
2022-09-12T18:26:57.267Z,101095.88
2022-09-12T18:29:27.710Z,101087.28
2022-09-12T18:31:56.143Z,101089.06
2022-09-12T18:34:24.416Z,101089.88
2022-09-12T18:36:55.059Z,101088.31
2022-09-12T18:39:27.436Z,101088.97
2022-09-12T18:41:56.405Z,101087.75
2022-09-12T18:44:24.608Z,101087.38
2022-09-12T18:46:52.952Z,101092.06
2022-09-12T18:49:21.236Z,101088.16
2022-09-12T18:51:49.442Z,101089.78
2022-09-12T18:54:18.049Z,101081.75
2022-09-12T18:56:46.321Z,101077.91
2022-09-12T18:59:14.994Z,101087.03
2022-09-12T19:01:44.104Z,101075.00
2022-09-12T19:04:14.214Z,101079.47
2022-09-12T19:06:48.170Z,101078.41
2022-09-12T19:09:20.759Z,101061.16
2022-09-12T19:11:49.871Z,101066.91
2022-09-12T19:14:24.925Z,101056.81
2022-09-12T19:16:53.644Z,101059.00
2022-09-12T19:19:21.792Z,101047.59
2022-09-12T19:21:49.923Z,101050.66
2022-09-12T19:24:18.585Z,101046.81
2022-09-12T19:26:47.076Z,101051.03
2022-09-12T19:29:16.942Z,101047.09
2022-09-12T19:31:46.035Z,101047.75
2022-09-12T19:34:14.906Z,101051.59
2022-09-12T19:36:45.736Z,101044.47
2022-09-12T19:39:17.544Z,101049.38
2022-09-12T19:41:46.364Z,101045.03
2022-09-12T19:44:14.888Z,101044.22
2022-09-12T19:46:43.465Z,101044.38
2022-09-12T19:49:13.143Z,101042.88
2022-09-12T19:51:41.415Z,101050.84
2022-09-12T19:54:09.735Z,101042.03
2022-09-12T19:56:38.375Z,101045.06
2022-09-12T19:59:06.667Z,101037.16
2022-09-12T20:01:37.251Z,101038.47
2022-09-12T20:04:08.071Z,101042.91
2022-09-12T20:06:36.844Z,101039.13
2022-09-12T20:09:05.183Z,101032.91
2022-09-12T20:11:33.441Z,101031.84
2022-09-12T20:14:01.679Z,101028.97
2022-09-12T20:16:30.321Z,101027.66
2022-09-12T20:19:02.559Z,101033.75
2022-09-12T20:21:32.707Z,101027.78
2022-09-12T20:24:08.328Z,101014.25
2022-09-12T20:26:36.492Z,101031.84
2022-09-12T20:29:06.441Z,101027.78
2022-09-12T20:31:36.673Z,101028.00
2022-09-12T20:34:06.703Z,101023.31
2022-09-12T20:36:34.911Z,101022.47
2022-09-12T20:39:03.651Z,101022.06
2022-09-12T20:41:38.051Z,101021.88
2022-09-12T20:44:06.255Z,101014.75
2022-09-12T20:46:34.467Z,101011.28
2022-09-12T20:49:02.961Z,101019.06
2022-09-12T20:51:31.188Z,101007.81
2022-09-12T20:54:05.608Z,101010.56
2022-09-12T20:56:36.638Z,101011.28
2022-09-12T20:59:05.752Z,101018.34
2022-09-12T21:01:34.336Z,101015.09
2022-09-12T21:04:03.070Z,101008.28
2022-09-12T21:06:31.727Z,101004.91
2022-09-12T21:09:00.664Z,101004.28
2022-09-12T21:11:29.480Z,100997.63
2022-09-12T21:13:57.986Z,101001.78
2022-09-12T21:16:26.242Z,100999.03
2022-09-12T21:18:58.562Z,100998.16
2022-09-12T21:21:27.289Z,100996.63
2022-09-12T21:24:02.960Z,101002.03
2022-09-12T21:26:31.946Z,101003.81
2022-09-12T21:29:00.192Z,100997.69
2022-09-12T21:31:28.420Z,100986.34
2022-09-12T21:33:56.612Z,101003.03
2022-09-12T21:36:25.303Z,101001.25
2022-09-12T21:38:53.513Z,100992.19
2022-09-12T21:41:21.647Z,100988.53
2022-09-12T21:43:49.909Z,100994.16
2022-09-12T21:46:18.657Z,100986.84
2022-09-12T21:48:46.984Z,100982.19
2022-09-12T21:51:15.121Z,100989.38
2022-09-12T21:53:43.309Z,100977.81
2022-09-12T21:56:11.507Z,100976.97
2022-09-12T21:58:39.882Z,100979.69
2022-09-12T22:01:10.651Z,100975.44
2022-09-12T22:03:39.396Z,100973.03
2022-09-12T22:06:07.843Z,100975.06
2022-09-12T22:08:37.810Z,100966.38
2022-09-12T22:11:09.739Z,100955.47
2022-09-12T22:13:42.032Z,100962.03
2022-09-12T22:16:10.660Z,100961.03
2022-09-12T22:18:39.209Z,100961.03
2022-09-12T22:21:14.926Z,100957.84
2022-09-12T22:24:02.575Z,100954.66
2022-09-12T22:26:36.436Z,100949.13
2022-09-12T22:29:04.616Z,100948.25
2022-09-12T22:31:33.627Z,100942.28
2022-09-12T22:34:01.849Z,100939.75
2022-09-12T22:36:31.601Z,100933.97
2022-09-12T22:39:00.542Z,100928.84
2022-09-12T22:41:28.871Z,100930.53
2022-09-12T22:43:57.842Z,100926.84
2022-09-12T22:46:26.141Z,100925.84
2022-09-12T22:48:55.761Z,100911.34
2022-09-12T22:51:24.106Z,100916.72
2022-09-12T22:53:52.484Z,100910.78
2022-09-12T22:56:21.206Z,100901.75
2022-09-12T22:58:49.740Z,100899.91
2022-09-12T23:01:18.550Z,100893.81
2022-09-12T23:03:46.925Z,100886.94
2022-09-12T23:06:15.538Z,100884.84
2022-09-12T23:08:43.720Z,100873.09
2022-09-12T23:11:19.186Z,100874.94
2022-09-12T23:13:50.023Z,100878.19
2022-09-12T23:16:26.362Z,100879.53
2022-09-12T23:18:54.564Z,100867.06
2022-09-12T23:21:22.777Z,100870.81
2022-09-12T23:23:51.204Z,100873.56
2022-09-12T23:26:27.993Z,100869.72
2022-09-12T23:29:00.860Z,100872.91
2022-09-12T23:31:32.164Z,100869.84
2022-09-12T23:34:06.022Z,100877.22
2022-09-12T23:36:34.398Z,100870.91
2022-09-12T23:39:02.852Z,100871.66
2022-09-12T23:41:31.251Z,100869.31
2022-09-12T23:43:59.490Z,100870.22
2022-09-12T23:46:27.687Z,100857.91
2022-09-12T23:48:55.818Z,100856.94
2022-09-12T23:51:23.990Z,100856.94
2022-09-12T23:53:52.111Z,100848.00
2022-09-12T23:56:22.110Z,100853.25
2022-09-12T23:58:50.315Z,100850.66
